Asian Infinity — 3EVP3 — position and weather

sailwx.info

Track history (hours):
 
Tides and Currents Weather Stations Pressure Air Temp Water Temp Dewpoint Dewpoint Depression Visibility Wind Speed Wind Dir Waves Ship Positions

Asian Infinity

Last reported at 2014-Oct-20 00:33 UTC. Time now 2014-Oct-25 06:26 UTC.
Position N 37°38' E 122°35'.

Length 104 m; draft 7.6 m.

Type: Ship (hazmat cat C). MMSI: 351868000.

Date/timePositionNaut miles runAvg speedWind from/ knotsBaromVisibWave heightAir tempDewpointWater temp
2014-Oct-20 00:33N 37°38' E 122°35'1110.7
2014-Oct-19 23:32N 37°40' E 122°22'1010.5
2014-Oct-19 22:33N 37°43' E 122°09'1110.3
2014-Oct-19 21:26N 37°46' E 121°55'910.3
2014-Oct-19 20:33N 37°48' E 121°44'1110.4
2014-Oct-19 19:31N 37°51' E 121°31'1010.6
2014-Oct-19 18:33N 37°54' E 121°18'1110.6
2014-Oct-19 17:33N 37°57' E 121°05'1210.4
2014-Oct-19 16:24N 37°59' E 120°51'139 9.9
2014-Oct-19 02:18N 38°54' E 118°07'7 8.8
2014-Oct-19 01:33N 38°56' E 117°59'1010.2
2014-Oct-19 00:33N 38°58' E 117°47'2 1.7
2014-Oct-18 23:33N 38°59' E 117°45'0 0.0
2014-Oct-18 22:33N 38°59' E 117°45'0 0.0
2014-Oct-18 21:15N 38°59' E 117°45'0 0.0
2014-Oct-18 20:33N 38°59' E 117°45'0 0.0
2014-Oct-18 19:33N 38°59' E 117°45'0 0.0
2014-Oct-18 18:33N 38°59' E 117°45'0 0.0
2014-Oct-18 17:33N 38°59' E 117°45'0 0.0
2014-Oct-18 16:33N 38°59' E 117°45'0 0.0
2014-Oct-18 15:33N 38°59' E 117°45'0 0.0
2014-Oct-18 14:33N 38°59' E 117°45'0 0.0
2014-Oct-18 13:33N 38°59' E 117°45'0 0.0
2014-Oct-18 12:33N 38°59' E 117°45'0 0.0
2014-Oct-18 11:27N 38°59' E 117°45'0 0.0
2014-Oct-18 10:27N 38°59' E 117°45'0 0.0
2014-Oct-18 09:33N 38°59' E 117°45'0 0.0
2014-Oct-18 08:33N 38°59' E 117°45'0 0.0
2014-Oct-18 07:15N 38°59' E 117°45'0 0.0
2014-Oct-18 06:03N 38°59' E 117°45'0 0.0
2014-Oct-18 05:15N 38°59' E 117°45'0 0.0
2014-Oct-18 04:03N 38°59' E 117°45'0 0.0
2014-Oct-18 03:33N 38°59' E 117°45'0 0.0
2014-Oct-18 02:33N 38°59' E 117°45'0 0.0
2014-Oct-18 01:21N 38°59' E 117°45'0 0.0
2014-Oct-18 00:33N 38°59' E 117°45'0 0.0
2014-Oct-17 23:15N 38°59' E 117°45'0 0.0
2014-Oct-17 22:33N 38°59' E 117°45'0 0.0
2014-Oct-17 21:33N 38°59' E 117°45'0 0.0
2014-Oct-17 20:33N 38°59' E 117°45'0 0.0
2014-Oct-17 19:33N 38°59' E 117°45'0 0.0
2014-Oct-17 18:21N 38°59' E 117°45'0 0.0
2014-Oct-17 17:21N 38°59' E 117°45'0 0.0
2014-Oct-17 16:33N 38°59' E 117°45'0 0.0
2014-Oct-17 15:33N 38°59' E 117°45'0 0.0
2014-Oct-17 14:33N 38°59' E 117°45'0 0.0
2014-Oct-17 13:33N 38°59' E 117°45'0 0.0
2014-Oct-17 12:33N 38°59' E 117°45'0 0.0
2014-Oct-17 11:33N 38°59' E 117°45'0 0.0
2014-Oct-17 10:33N 38°59' E 117°45'0 0.0
2014-Oct-17 09:21N 38°59' E 117°45'1 0.7
2014-Oct-17 08:22N 38°59' E 117°45'0 0.0
2014-Oct-17 07:22N 38°59' E 117°45'0 0.0
2014-Oct-17 06:28N 38°59' E 117°45'0 0.0
2014-Oct-17 05:28N 38°59' E 117°45'0 0.0
2014-Oct-17 03:16N 38°59' E 117°45'0 0.0
2014-Oct-17 02:22N 38°59' E 117°45'0 0.0
2014-Oct-17 01:28N 38°59' E 117°45'0 0.0
2014-Oct-17 00:22N 38°59' E 117°45'0 0.0
2014-Oct-16 23:22N 38°59' E 117°45'0 0.0
2014-Oct-16 22:22N 38°59' E 117°45'0 0.0
2014-Oct-16 21:28N 38°59' E 117°45'0 0.0
2014-Oct-16 20:28N 38°59' E 117°45'0 0.0
2014-Oct-16 19:28N 38°59' E 117°45'0 0.0
2014-Oct-16 18:28N 38°59' E 117°45'0 0.0
2014-Oct-16 17:28N 38°59' E 117°45'0 0.0
2014-Oct-16 16:28N 38°59' E 117°45'0 0.0
2014-Oct-16 15:22N 38°59' E 117°45'0 0.0
2014-Oct-16 14:28N 38°59' E 117°45'0 0.0
2014-Oct-16 13:28N 38°59' E 117°45'0 0.0
2014-Oct-16 11:28N 38°59' E 117°45'0 0.0
2014-Oct-16 10:28N 38°59' E 117°45'0 0.0
2014-Oct-16 09:16N 38°59' E 117°45'0 0.0
2014-Oct-16 07:22N 38°59' E 117°45'0 0.0
2014-Oct-16 06:28N 38°59' E 117°45'0 0.0
2014-Oct-16 05:16N 38°59' E 117°45'0 0.0
2014-Oct-16 04:22N 38°59' E 117°45'0 0.0
2014-Oct-16 03:22N 38°59' E 117°45'0 0.0
2014-Oct-16 02:28N 38°59' E 117°45'0 0.0
2014-Oct-16 01:28N 38°59' E 117°45'0 0.0
2014-Oct-16 00:16N 38°59' E 117°45'0 0.0
2014-Oct-15 23:16N 38°59' E 117°45'0 0.0
2014-Oct-15 22:22N 38°59' E 117°45'0 0.0
2014-Oct-15 21:28N 38°59' E 117°45'0 0.0
2014-Oct-15 20:22N 38°59' E 117°45'0 0.0
2014-Oct-15 19:22N 38°59' E 117°45'0 0.0
2014-Oct-15 17:04N 38°59' E 117°45'0 0.0
2014-Oct-15 16:28N 38°59' E 117°45'0 0.0
2014-Oct-15 15:28N 38°59' E 117°45'0 0.0
2014-Oct-15 14:28N 38°59' E 117°45'0 0.0
2014-Oct-15 13:22N 38°59' E 117°45'0 0.0
2014-Oct-15 12:28N 38°59' E 117°45'0 0.0
2014-Oct-15 11:28N 38°59' E 117°45'0 0.0
2014-Oct-15 09:28N 38°59' E 117°45'0 0.0
2014-Oct-15 05:28N 38°59' E 117°45'0 0.0
2014-Oct-15 04:28N 38°59' E 117°45'0 0.0
2014-Oct-15 02:28N 38°59' E 117°45'0 0.0
2014-Oct-15 01:28N 38°59' E 117°45'0 0.0
2014-Oct-15 00:22N 38°59' E 117°45'0 0.0
2014-Oct-14 23:22N 38°59' E 117°45'0 0.0
2014-Oct-14 18:28N 38°59' E 117°45'0 0.0
2014-Oct-14 17:16N 38°59' E 117°45'0 0.0
2014-Oct-14 16:28N 38°59' E 117°45'0 0.0
2014-Oct-14 15:28N 38°59' E 117°45'0 0.0
2014-Oct-14 14:28N 38°59' E 117°45'0 0.0
2014-Oct-14 13:28N 38°59' E 117°45'0 0.0
2014-Oct-14 12:29N 38°59' E 117°45'0 0.0
2014-Oct-14 11:28N 38°59' E 117°45'0 0.0
2014-Oct-14 10:22N 38°59' E 117°45'0 0.0
2014-Oct-14 09:28N 38°59' E 117°45'0 0.0
2014-Oct-14 07:16N 38°59' E 117°45'0 0.0
2014-Oct-14 06:28N 38°59' E 117°45'0 0.0
2014-Oct-14 05:22N 38°59' E 117°45'0 0.0
2014-Oct-14 04:22N 38°59' E 117°45'0 0.0
2014-Oct-14 03:22N 38°59' E 117°45'0 0.0
2014-Oct-14 02:28N 38°59' E 117°45'0 0.0
2014-Oct-14 01:28N 38°59' E 117°45'0 0.0
2014-Oct-14 00:28N 38°59' E 117°45'0 0.0
2014-Oct-13 23:28N 38°59' E 117°45'0 0.0
2014-Oct-13 22:28N 38°59' E 117°45'0 0.0
2014-Oct-13 21:28N 38°59' E 117°45'0 0.0
2014-Oct-13 20:28N 38°59' E 117°45'0 0.0
2014-Oct-13 19:22N 38°59' E 117°45'0 0.0
2014-Oct-13 18:28N 38°59' E 117°45'0 0.0
2014-Oct-13 17:28N 38°59' E 117°45'0 0.0
2014-Oct-13 16:22N 38°59' E 117°45'0 0.0
2014-Oct-13 15:28N 38°59' E 117°45'0 0.0
2014-Oct-13 13:22N 38°59' E 117°45'0 0.0
2014-Oct-13 12:22N 38°59' E 117°45'0 0.0
2014-Oct-13 11:29N 38°59' E 117°45'0 0.0
2014-Oct-13 10:28N 38°59' E 117°45'0 0.0
2014-Oct-13 09:28N 38°59' E 117°45'0 0.0
2014-Oct-13 07:22N 38°59' E 117°45'0 0.0
2014-Oct-13 06:22N 38°59' E 117°45'0 0.0
2014-Oct-13 05:28N 38°59' E 117°45'0 0.0
2014-Oct-13 04:28N 38°59' E 117°45'0 0.0
2014-Oct-13 03:28N 38°59' E 117°45'0 0.0
2014-Oct-13 02:28N 38°59' E 117°45'0 0.0
2014-Oct-13 01:28N 38°59' E 117°45'0 0.0
2014-Oct-13 00:22N 38°59' E 117°45'0 0.0
2014-Oct-12 23:28N 38°59' E 117°45'0 0.0
2014-Oct-12 22:28N 38°59' E 117°45'0 0.0
2014-Oct-12 21:22N 38°59' E 117°45'0 0.0
2014-Oct-12 20:28N 38°59' E 117°45'0 0.0
2014-Oct-12 19:16N 38°59' E 117°45'0 0.0
2014-Oct-12 18:28N 38°59' E 117°45'0 0.0
2014-Oct-12 17:28N 38°59' E 117°45'0 0.0
2014-Oct-12 16:16N 38°59' E 117°45'0 0.0
2014-Oct-12 15:22N 38°59' E 117°45'0 0.0
2014-Oct-12 14:22N 38°59' E 117°45'0 0.0
2014-Oct-12 13:22N 38°59' E 117°45'0 0.2
2014-Oct-12 12:33N 38°59' E 117°45'9 8.9
2014-Oct-12 11:33N 38°57' E 117°57'6 0.9
2014-Oct-12 04:33N 38°58' E 118°05'0 0.0
2014-Oct-12 02:27N 38°58' E 118°05'104 9.3
2014-Oct-11 15:14N 38°42' E 120°17'1210.7
2014-Oct-11 14:04N 38°40' E 120°33'6 9.9
2014-Oct-11 13:26N 38°38' E 120°41'17 9.3
2014-Oct-11 11:33N 38°34' E 121°02'11 8.8
2014-Oct-11 10:18N 38°31' E 121°16'7 9.8
2014-Oct-11 09:33N 38°32' E 121°25'11 9.9
2014-Oct-11 08:26N 38°33' E 121°40'8 9.1
2014-Oct-11 07:33N 38°41' E 121°42'1110.3
2014-Oct-11 06:31N 38°51' E 121°45'8 8.4
2014-Oct-11 05:33N 38°59' E 121°46'2 0.1
2014-Oct-10 06:11N 39°01' E 121°45'6 6.9
2014-Oct-10 05:18N 38°55' E 121°47'5 7.1
2014-Oct-10 04:33N 38°50' E 121°50'10 3.2
2014-Oct-10 01:25N 38°54' E 122°02'  
Track history (hours):
 
Tides and Currents Weather Stations Pressure Air Temp Water Temp Dewpoint Dewpoint Depression Visibility Wind Speed Wind Dir Waves Ship Positions

Asian Infinity

Last reported at 2014-Oct-20 00:33 UTC. Time now 2014-Oct-25 06:26 UTC.
Position N 37°38' E 122°35'.

Length 104 m; draft 7.6 m.

Type: Ship (hazmat cat C). MMSI: 351868000.

Date/timePositionNaut miles runAvg speedWind from/ knotsBaromVisibWave heightAir tempDewpointWater temp
2014-Oct-20 00:33N 37°38' E 122°35'1110.7
2014-Oct-19 23:32N 37°40' E 122°22'1010.5
2014-Oct-19 22:33N 37°43' E 122°09'1110.3
2014-Oct-19 21:26N 37°46' E 121°55'910.3
2014-Oct-19 20:33N 37°48' E 121°44'1110.4
2014-Oct-19 19:31N 37°51' E 121°31'1010.6
2014-Oct-19 18:33N 37°54' E 121°18'1110.6
2014-Oct-19 17:33N 37°57' E 121°05'1210.4
2014-Oct-19 16:24N 37°59' E 120°51'139 9.9
2014-Oct-19 02:18N 38°54' E 118°07'7 8.8
2014-Oct-19 01:33N 38°56' E 117°59'1010.2
2014-Oct-19 00:33N 38°58' E 117°47'2 1.7
2014-Oct-18 23:33N 38°59' E 117°45'0 0.0
2014-Oct-18 22:33N 38°59' E 117°45'0 0.0
2014-Oct-18 21:15N 38°59' E 117°45'0 0.0
2014-Oct-18 20:33N 38°59' E 117°45'0 0.0
2014-Oct-18 19:33N 38°59' E 117°45'0 0.0
2014-Oct-18 18:33N 38°59' E 117°45'0 0.0
2014-Oct-18 17:33N 38°59' E 117°45'0 0.0
2014-Oct-18 16:33N 38°59' E 117°45'0 0.0
2014-Oct-18 15:33N 38°59' E 117°45'0 0.0
2014-Oct-18 14:33N 38°59' E 117°45'0 0.0
2014-Oct-18 13:33N 38°59' E 117°45'0 0.0
2014-Oct-18 12:33N 38°59' E 117°45'0 0.0
2014-Oct-18 11:27N 38°59' E 117°45'0 0.0
2014-Oct-18 10:27N 38°59' E 117°45'0 0.0
2014-Oct-18 09:33N 38°59' E 117°45'0 0.0
2014-Oct-18 08:33N 38°59' E 117°45'0 0.0
2014-Oct-18 07:15N 38°59' E 117°45'0 0.0
2014-Oct-18 06:03N 38°59' E 117°45'0 0.0
2014-Oct-18 05:15N 38°59' E 117°45'0 0.0
2014-Oct-18 04:03N 38°59' E 117°45'0 0.0
2014-Oct-18 03:33N 38°59' E 117°45'0 0.0
2014-Oct-18 02:33N 38°59' E 117°45'0 0.0
2014-Oct-18 01:21N 38°59' E 117°45'0 0.0
2014-Oct-18 00:33N 38°59' E 117°45'0 0.0
2014-Oct-17 23:15N 38°59' E 117°45'0 0.0
2014-Oct-17 22:33N 38°59' E 117°45'0 0.0
2014-Oct-17 21:33N 38°59' E 117°45'0 0.0
2014-Oct-17 20:33N 38°59' E 117°45'0 0.0
2014-Oct-17 19:33N 38°59' E 117°45'0 0.0
2014-Oct-17 18:21N 38°59' E 117°45'0 0.0
2014-Oct-17 17:21N 38°59' E 117°45'0 0.0
2014-Oct-17 16:33N 38°59' E 117°45'0 0.0
2014-Oct-17 15:33N 38°59' E 117°45'0 0.0
2014-Oct-17 14:33N 38°59' E 117°45'0 0.0
2014-Oct-17 13:33N 38°59' E 117°45'0 0.0
2014-Oct-17 12:33N 38°59' E 117°45'0 0.0
2014-Oct-17 11:33N 38°59' E 117°45'0 0.0
2014-Oct-17 10:33N 38°59' E 117°45'0 0.0
2014-Oct-17 09:21N 38°59' E 117°45'1 0.7
2014-Oct-17 08:22N 38°59' E 117°45'0 0.0
2014-Oct-17 07:22N 38°59' E 117°45'0 0.0
2014-Oct-17 06:28N 38°59' E 117°45'0 0.0
2014-Oct-17 05:28N 38°59' E 117°45'0 0.0
2014-Oct-17 03:16N 38°59' E 117°45'0 0.0
2014-Oct-17 02:22N 38°59' E 117°45'0 0.0
2014-Oct-17 01:28N 38°59' E 117°45'0 0.0
2014-Oct-17 00:22N 38°59' E 117°45'0 0.0
2014-Oct-16 23:22N 38°59' E 117°45'0 0.0
2014-Oct-16 22:22N 38°59' E 117°45'0 0.0
2014-Oct-16 21:28N 38°59' E 117°45'0 0.0
2014-Oct-16 20:28N 38°59' E 117°45'0 0.0
2014-Oct-16 19:28N 38°59' E 117°45'0 0.0
2014-Oct-16 18:28N 38°59' E 117°45'0 0.0
2014-Oct-16 17:28N 38°59' E 117°45'0 0.0
2014-Oct-16 16:28N 38°59' E 117°45'0 0.0
2014-Oct-16 15:22N 38°59' E 117°45'0 0.0
2014-Oct-16 14:28N 38°59' E 117°45'0 0.0
2014-Oct-16 13:28N 38°59' E 117°45'0 0.0
2014-Oct-16 11:28N 38°59' E 117°45'0 0.0
2014-Oct-16 10:28N 38°59' E 117°45'0 0.0
2014-Oct-16 09:16N 38°59' E 117°45'0 0.0
2014-Oct-16 07:22N 38°59' E 117°45'0 0.0
2014-Oct-16 06:28N 38°59' E 117°45'0 0.0
2014-Oct-16 05:16N 38°59' E 117°45'0 0.0
2014-Oct-16 04:22N 38°59' E 117°45'0 0.0
2014-Oct-16 03:22N 38°59' E 117°45'0 0.0
2014-Oct-16 02:28N 38°59' E 117°45'0 0.0
2014-Oct-16 01:28N 38°59' E 117°45'0 0.0
2014-Oct-16 00:16N 38°59' E 117°45'0 0.0
2014-Oct-15 23:16N 38°59' E 117°45'0 0.0
2014-Oct-15 22:22N 38°59' E 117°45'0 0.0
2014-Oct-15 21:28N 38°59' E 117°45'0 0.0
2014-Oct-15 20:22N 38°59' E 117°45'0 0.0
2014-Oct-15 19:22N 38°59' E 117°45'0 0.0
2014-Oct-15 17:04N 38°59' E 117°45'0 0.0
2014-Oct-15 16:28N 38°59' E 117°45'0 0.0
2014-Oct-15 15:28N 38°59' E 117°45'0 0.0
2014-Oct-15 14:28N 38°59' E 117°45'0 0.0
2014-Oct-15 13:22N 38°59' E 117°45'0 0.0
2014-Oct-15 12:28N 38°59' E 117°45'0 0.0
2014-Oct-15 11:28N 38°59' E 117°45'0 0.0
2014-Oct-15 09:28N 38°59' E 117°45'0 0.0
2014-Oct-15 05:28N 38°59' E 117°45'0 0.0
2014-Oct-15 04:28N 38°59' E 117°45'0 0.0
2014-Oct-15 02:28N 38°59' E 117°45'0 0.0
2014-Oct-15 01:28N 38°59' E 117°45'0 0.0
2014-Oct-15 00:22N 38°59' E 117°45'0 0.0
2014-Oct-14 23:22N 38°59' E 117°45'0 0.0
2014-Oct-14 18:28N 38°59' E 117°45'0 0.0
2014-Oct-14 17:16N 38°59' E 117°45'0 0.0
2014-Oct-14 16:28N 38°59' E 117°45'0 0.0
2014-Oct-14 15:28N 38°59' E 117°45'0 0.0
2014-Oct-14 14:28N 38°59' E 117°45'0 0.0
2014-Oct-14 13:28N 38°59' E 117°45'0 0.0
2014-Oct-14 12:29N 38°59' E 117°45'0 0.0
2014-Oct-14 11:28N 38°59' E 117°45'0 0.0
2014-Oct-14 10:22N 38°59' E 117°45'0 0.0
2014-Oct-14 09:28N 38°59' E 117°45'0 0.0
2014-Oct-14 07:16N 38°59' E 117°45'0 0.0
2014-Oct-14 06:28N 38°59' E 117°45'0 0.0
2014-Oct-14 05:22N 38°59' E 117°45'0 0.0
2014-Oct-14 04:22N 38°59' E 117°45'0 0.0
2014-Oct-14 03:22N 38°59' E 117°45'0 0.0
2014-Oct-14 02:28N 38°59' E 117°45'0 0.0
2014-Oct-14 01:28N 38°59' E 117°45'0 0.0
2014-Oct-14 00:28N 38°59' E 117°45'0 0.0
2014-Oct-13 23:28N 38°59' E 117°45'0 0.0
2014-Oct-13 22:28N 38°59' E 117°45'0 0.0
2014-Oct-13 21:28N 38°59' E 117°45'0 0.0
2014-Oct-13 20:28N 38°59' E 117°45'0 0.0
2014-Oct-13 19:22N 38°59' E 117°45'0 0.0
2014-Oct-13 18:28N 38°59' E 117°45'0 0.0
2014-Oct-13 17:28N 38°59' E 117°45'0 0.0
2014-Oct-13 16:22N 38°59' E 117°45'0 0.0
2014-Oct-13 15:28N 38°59' E 117°45'0 0.0
2014-Oct-13 13:22N 38°59' E 117°45'0 0.0
2014-Oct-13 12:22N 38°59' E 117°45'0 0.0
2014-Oct-13 11:29N 38°59' E 117°45'0 0.0
2014-Oct-13 10:28N 38°59' E 117°45'0 0.0
2014-Oct-13 09:28N 38°59' E 117°45'0 0.0
2014-Oct-13 07:22N 38°59' E 117°45'0 0.0
2014-Oct-13 06:22N 38°59' E 117°45'0 0.0
2014-Oct-13 05:28N 38°59' E 117°45'0 0.0
2014-Oct-13 04:28N 38°59' E 117°45'0 0.0
2014-Oct-13 03:28N 38°59' E 117°45'0 0.0
2014-Oct-13 02:28N 38°59' E 117°45'0 0.0
2014-Oct-13 01:28N 38°59' E 117°45'0 0.0
2014-Oct-13 00:22N 38°59' E 117°45'0 0.0
2014-Oct-12 23:28N 38°59' E 117°45'0 0.0
2014-Oct-12 22:28N 38°59' E 117°45'0 0.0
2014-Oct-12 21:22N 38°59' E 117°45'0 0.0
2014-Oct-12 20:28N 38°59' E 117°45'0 0.0
2014-Oct-12 19:16N 38°59' E 117°45'0 0.0
2014-Oct-12 18:28N 38°59' E 117°45'0 0.0
2014-Oct-12 17:28N 38°59' E 117°45'0 0.0
2014-Oct-12 16:16N 38°59' E 117°45'0 0.0
2014-Oct-12 15:22N 38°59' E 117°45'0 0.0
2014-Oct-12 14:22N 38°59' E 117°45'0 0.0
2014-Oct-12 13:22N 38°59' E 117°45'0 0.2
2014-Oct-12 12:33N 38°59' E 117°45'9 8.9
2014-Oct-12 11:33N 38°57' E 117°57'6 0.9
2014-Oct-12 04:33N 38°58' E 118°05'0 0.0
2014-Oct-12 02:27N 38°58' E 118°05'104 9.3
2014-Oct-11 15:14N 38°42' E 120°17'1210.7
2014-Oct-11 14:04N 38°40' E 120°33'6 9.9
2014-Oct-11 13:26N 38°38' E 120°41'17 9.3
2014-Oct-11 11:33N 38°34' E 121°02'11 8.8
2014-Oct-11 10:18N 38°31' E 121°16'7 9.8
2014-Oct-11 09:33N 38°32' E 121°25'11 9.9
2014-Oct-11 08:26N 38°33' E 121°40'8 9.1
2014-Oct-11 07:33N 38°41' E 121°42'1110.3
2014-Oct-11 06:31N 38°51' E 121°45'8 8.4
2014-Oct-11 05:33N 38°59' E 121°46'2 0.1
2014-Oct-10 06:11N 39°01' E 121°45'6 6.9
2014-Oct-10 05:18N 38°55' E 121°47'5 7.1
2014-Oct-10 04:33N 38°50' E 121°50'10 3.2
2014-Oct-10 01:25N 38°54' E 122°02'  

Dump ship's entire track history